sensor_id;sensor_type;location;lat;lon;timestamp;P1;durP1;ratioP1;P2;durP2;ratioP2
15871;SDS011;8035;51.962;7.162;2023-06-14T00:00:31;5.70;;;3.40;;
15871;SDS011;8035;51.962;7.162;2023-06-14T00:02:56;6.93;;;4.00;;
15871;SDS011;8035;51.962;7.162;2023-06-14T00:05:23;3.50;;;3.20;;
15871;SDS011;8035;51.962;7.162;2023-06-14T00:07:49;7.17;;;3.70;;
15871;SDS011;8035;51.962;7.162;2023-06-14T00:10:18;9.30;;;4.07;;
15871;SDS011;8035;51.962;7.162;2023-06-14T00:12:44;4.70;;;3.20;;
15871;SDS011;8035;51.962;7.162;2023-06-14T00:15:09;5.30;;;3.30;;
15871;SDS011;8035;51.962;7.162;2023-06-14T00:17:35;6.67;;;3.73;;
15871;SDS011;8035;51.962;7.162;2023-06-14T00:20:02;4.53;;;3.10;;
15871;SDS011;8035;51.962;7.162;2023-06-14T00:22:31;3.63;;;3.27;;
15871;SDS011;8035;51.962;7.162;2023-06-14T00:24:57;4.47;;;3.40;;
15871;SDS011;8035;51.962;7.162;2023-06-14T00:27:23;5.53;;;3.37;;
15871;SDS011;8035;51.962;7.162;2023-06-14T00:29:49;5.37;;;3.83;;
15871;SDS011;8035;51.962;7.162;2023-06-14T00:32:15;3.73;;;3.33;;
15871;SDS011;8035;51.962;7.162;2023-06-14T00:34:41;5.93;;;3.17;;
15871;SDS011;8035;51.962;7.162;2023-06-14T00:37:06;6.17;;;3.20;;
15871;SDS011;8035;51.962;7.162;2023-06-14T00:39:32;4.53;;;3.30;;
15871;SDS011;8035;51.962;7.162;2023-06-14T00:41:57;3.70;;;3.10;;
15871;SDS011;8035;51.962;7.162;2023-06-14T00:44:24;5.63;;;3.10;;
15871;SDS011;8035;51.962;7.162;2023-06-14T00:46:50;7.50;;;3.17;;
15871;SDS011;8035;51.962;7.162;2023-06-14T00:49:16;4.43;;;3.20;;
15871;SDS011;8035;51.962;7.162;2023-06-14T00:51:43;3.23;;;2.93;;
15871;SDS011;8035;51.962;7.162;2023-06-14T00:54:08;3.73;;;3.33;;
15871;SDS011;8035;51.962;7.162;2023-06-14T00:56:37;6.03;;;3.17;;
15871;SDS011;8035;51.962;7.162;2023-06-14T00:59:04;7.93;;;3.00;;
15871;SDS011;8035;51.962;7.162;2023-06-14T01:01:30;5.50;;;3.07;;
15871;SDS011;8035;51.962;7.162;2023-06-14T01:04:01;3.00;;;2.70;;
15871;SDS011;8035;51.962;7.162;2023-06-14T01:14:26;6.10;;;3.20;;
15871;SDS011;8035;51.962;7.162;2023-06-14T01:16:54;4.70;;;3.30;;
15871;SDS011;8035;51.962;7.162;2023-06-14T01:19:22;7.17;;;3.47;;
15871;SDS011;8035;51.962;7.162;2023-06-14T01:21:50;6.37;;;3.13;;
15871;SDS011;8035;51.962;7.162;2023-06-14T01:24:17;4.10;;;3.03;;
15871;SDS011;8035;51.962;7.162;2023-06-14T01:26:51;4.10;;;3.00;;
15871;SDS011;8035;51.962;7.162;2023-06-14T01:29:21;3.40;;;2.80;;
15871;SDS011;8035;51.962;7.162;2023-06-14T01:31:48;5.07;;;3.50;;
15871;SDS011;8035;51.962;7.162;2023-06-14T01:34:15;4.00;;;2.87;;
15871;SDS011;8035;51.962;7.162;2023-06-14T01:36:41;5.00;;;2.77;;
15871;SDS011;8035;51.962;7.162;2023-06-14T01:39:13;4.23;;;2.80;;
15871;SDS011;8035;51.962;7.162;2023-06-14T01:41:41;3.67;;;3.23;;
15871;SDS011;8035;51.962;7.162;2023-06-14T01:44:08;3.90;;;2.70;;
15871;SDS011;8035;51.962;7.162;2023-06-14T01:46:34;4.20;;;3.23;;
15871;SDS011;8035;51.962;7.162;2023-06-14T01:49:00;3.30;;;2.87;;
15871;SDS011;8035;51.962;7.162;2023-06-14T01:51:26;2.80;;;2.57;;
15871;SDS011;8035;51.962;7.162;2023-06-14T01:53:51;6.53;;;2.80;;
15871;SDS011;8035;51.962;7.162;2023-06-14T01:56:17;7.80;;;2.93;;
15871;SDS011;8035;51.962;7.162;2023-06-14T01:58:43;3.90;;;3.10;;
15871;SDS011;8035;51.962;7.162;2023-06-14T02:01:08;3.93;;;2.60;;
15871;SDS011;8035;51.962;7.162;2023-06-14T02:03:34;4.00;;;2.70;;
15871;SDS011;8035;51.962;7.162;2023-06-14T02:06:04;4.67;;;2.80;;
15871;SDS011;8035;51.962;7.162;2023-06-14T02:08:30;3.77;;;2.73;;
15871;SDS011;8035;51.962;7.162;2023-06-14T02:10:55;3.50;;;3.20;;
15871;SDS011;8035;51.962;7.162;2023-06-14T02:13:21;6.63;;;3.03;;
15871;SDS011;8035;51.962;7.162;2023-06-14T02:15:47;3.10;;;2.73;;
15871;SDS011;8035;51.962;7.162;2023-06-14T02:18:16;4.30;;;3.00;;
15871;SDS011;8035;51.962;7.162;2023-06-14T02:20:41;3.37;;;2.50;;
15871;SDS011;8035;51.962;7.162;2023-06-14T02:23:07;5.63;;;3.27;;
15871;SDS011;8035;51.962;7.162;2023-06-14T02:25:32;5.10;;;2.73;;
15871;SDS011;8035;51.962;7.162;2023-06-14T02:27:58;3.13;;;2.83;;
15871;SDS011;8035;51.962;7.162;2023-06-14T02:30:23;4.50;;;3.67;;
15871;SDS011;8035;51.962;7.162;2023-06-14T02:32:49;5.40;;;2.90;;
15871;SDS011;8035;51.962;7.162;2023-06-14T02:35:16;6.60;;;2.83;;
15871;SDS011;8035;51.962;7.162;2023-06-14T02:37:42;7.33;;;3.57;;
15871;SDS011;8035;51.962;7.162;2023-06-14T02:40:08;4.73;;;3.00;;
15871;SDS011;8035;51.962;7.162;2023-06-14T02:42:34;3.30;;;3.00;;
15871;SDS011;8035;51.962;7.162;2023-06-14T02:44:59;5.27;;;2.63;;
15871;SDS011;8035;51.962;7.162;2023-06-14T02:47:25;5.03;;;3.27;;
15871;SDS011;8035;51.962;7.162;2023-06-14T02:49:51;4.60;;;2.93;;
15871;SDS011;8035;51.962;7.162;2023-06-14T02:52:17;4.57;;;2.80;;
15871;SDS011;8035;51.962;7.162;2023-06-14T02:54:42;4.10;;;2.93;;
15871;SDS011;8035;51.962;7.162;2023-06-14T02:57:08;5.70;;;2.83;;
15871;SDS011;8035;51.962;7.162;2023-06-14T02:59:35;5.63;;;2.93;;
15871;SDS011;8035;51.962;7.162;2023-06-14T03:02:01;6.33;;;2.93;;
15871;SDS011;8035;51.962;7.162;2023-06-14T03:04:26;5.53;;;2.70;;
15871;SDS011;8035;51.962;7.162;2023-06-14T03:06:54;5.00;;;2.57;;
15871;SDS011;8035;51.962;7.162;2023-06-14T03:09:20;3.97;;;3.10;;
15871;SDS011;8035;51.962;7.162;2023-06-14T03:11:45;4.23;;;2.97;;
15871;SDS011;8035;51.962;7.162;2023-06-14T03:14:11;4.87;;;2.90;;
15871;SDS011;8035;51.962;7.162;2023-06-14T03:16:38;4.00;;;2.70;;
15871;SDS011;8035;51.962;7.162;2023-06-14T03:19:04;4.37;;;2.97;;
15871;SDS011;8035;51.962;7.162;2023-06-14T03:21:29;3.37;;;2.70;;
15871;SDS011;8035;51.962;7.162;2023-06-14T03:23:55;3.57;;;2.70;;
15871;SDS011;8035;51.962;7.162;2023-06-14T03:26:20;3.97;;;2.90;;
15871;SDS011;8035;51.962;7.162;2023-06-14T03:28:47;4.40;;;3.00;;
15871;SDS011;8035;51.962;7.162;2023-06-14T03:31:15;4.57;;;2.73;;
15871;SDS011;8035;51.962;7.162;2023-06-14T03:33:41;3.63;;;2.70;;
15871;SDS011;8035;51.962;7.162;2023-06-14T03:36:07;5.40;;;3.03;;
15871;SDS011;8035;51.962;7.162;2023-06-14T03:38:33;7.07;;;3.27;;
15871;SDS011;8035;51.962;7.162;2023-06-14T03:40:59;3.27;;;2.70;;
15871;SDS011;8035;51.962;7.162;2023-06-14T03:43:24;7.07;;;3.10;;
15871;SDS011;8035;51.962;7.162;2023-06-14T03:45:50;6.10;;;2.90;;
15871;SDS011;8035;51.962;7.162;2023-06-14T03:48:16;4.50;;;3.13;;
15871;SDS011;8035;51.962;7.162;2023-06-14T03:50:42;4.13;;;2.70;;
15871;SDS011;8035;51.962;7.162;2023-06-14T03:53:08;5.37;;;2.50;;
15871;SDS011;8035;51.962;7.162;2023-06-14T03:55:34;4.57;;;3.00;;
15871;SDS011;8035;51.962;7.162;2023-06-14T03:58:00;3.33;;;3.00;;
15871;SDS011;8035;51.962;7.162;2023-06-14T04:00:25;4.67;;;2.87;;
15871;SDS011;8035;51.962;7.162;2023-06-14T04:02:51;4.70;;;2.80;;
15871;SDS011;8035;51.962;7.162;2023-06-14T04:05:17;4.37;;;3.30;;
15871;SDS011;8035;51.962;7.162;2023-06-14T04:07:44;6.30;;;2.93;;
15871;SDS011;8035;51.962;7.162;2023-06-14T04:10:11;5.10;;;3.17;;
15871;SDS011;8035;51.962;7.162;2023-06-14T04:12:38;6.07;;;2.83;;
15871;SDS011;8035;51.962;7.162;2023-06-14T04:15:03;4.27;;;3.20;;
15871;SDS011;8035;51.962;7.162;2023-06-14T04:17:31;7.17;;;2.77;;
15871;SDS011;8035;51.962;7.162;2023-06-14T04:20:00;4.37;;;2.93;;
15871;SDS011;8035;51.962;7.162;2023-06-14T04:22:27;5.03;;;3.00;;
15871;SDS011;8035;51.962;7.162;2023-06-14T04:24:54;3.73;;;2.90;;
15871;SDS011;8035;51.962;7.162;2023-06-14T04:27:21;5.43;;;3.00;;
15871;SDS011;8035;51.962;7.162;2023-06-14T04:29:50;3.50;;;2.53;;
15871;SDS011;8035;51.962;7.162;2023-06-14T04:32:21;4.87;;;3.40;;
15871;SDS011;8035;51.962;7.162;2023-06-14T04:34:54;5.67;;;2.93;;
15871;SDS011;8035;51.962;7.162;2023-06-14T04:37:21;3.37;;;2.70;;
15871;SDS011;8035;51.962;7.162;2023-06-14T04:39:47;3.80;;;3.50;;
15871;SDS011;8035;51.962;7.162;2023-06-14T04:42:13;3.27;;;2.97;;
15871;SDS011;8035;51.962;7.162;2023-06-14T04:44:40;5.37;;;2.90;;
15871;SDS011;8035;51.962;7.162;2023-06-14T04:47:06;5.63;;;3.10;;
15871;SDS011;8035;51.962;7.162;2023-06-14T04:49:32;5.77;;;3.30;;
15871;SDS011;8035;51.962;7.162;2023-06-14T04:51:59;6.07;;;3.00;;
15871;SDS011;8035;51.962;7.162;2023-06-14T04:54:26;5.37;;;3.27;;
15871;SDS011;8035;51.962;7.162;2023-06-14T04:56:52;9.77;;;3.53;;
15871;SDS011;8035;51.962;7.162;2023-06-14T04:59:20;4.17;;;2.80;;
15871;SDS011;8035;51.962;7.162;2023-06-14T05:01:48;7.93;;;3.70;;
15871;SDS011;8035;51.962;7.162;2023-06-14T05:04:17;3.10;;;2.80;;
15871;SDS011;8035;51.962;7.162;2023-06-14T05:06:43;4.40;;;3.13;;
15871;SDS011;8035;51.962;7.162;2023-06-14T05:09:10;4.10;;;2.63;;
15871;SDS011;8035;51.962;7.162;2023-06-14T05:11:36;3.67;;;2.73;;
15871;SDS011;8035;51.962;7.162;2023-06-14T05:14:01;4.73;;;3.10;;
15871;SDS011;8035;51.962;7.162;2023-06-14T05:16:27;5.93;;;3.03;;
15871;SDS011;8035;51.962;7.162;2023-06-14T05:18:54;4.90;;;2.70;;
15871;SDS011;8035;51.962;7.162;2023-06-14T05:21:20;3.40;;;3.00;;
15871;SDS011;8035;51.962;7.162;2023-06-14T05:23:45;5.40;;;2.77;;
15871;SDS011;8035;51.962;7.162;2023-06-14T05:26:11;5.77;;;2.80;;
15871;SDS011;8035;51.962;7.162;2023-06-14T05:28:37;4.47;;;3.30;;
15871;SDS011;8035;51.962;7.162;2023-06-14T05:31:02;5.00;;;3.00;;
15871;SDS011;8035;51.962;7.162;2023-06-14T05:33:28;4.80;;;2.90;;
15871;SDS011;8035;51.962;7.162;2023-06-14T05:35:53;3.30;;;2.47;;
15871;SDS011;8035;51.962;7.162;2023-06-14T05:38:20;3.43;;;2.40;;
15871;SDS011;8035;51.962;7.162;2023-06-14T05:40:45;3.03;;;2.60;;
15871;SDS011;8035;51.962;7.162;2023-06-14T05:43:11;4.10;;;3.07;;
15871;SDS011;8035;51.962;7.162;2023-06-14T05:45:37;4.43;;;3.13;;
15871;SDS011;8035;51.962;7.162;2023-06-14T05:48:02;3.93;;;2.93;;
15871;SDS011;8035;51.962;7.162;2023-06-14T05:50:28;3.77;;;2.53;;
15871;SDS011;8035;51.962;7.162;2023-06-14T05:52:53;3.93;;;2.73;;
15871;SDS011;8035;51.962;7.162;2023-06-14T05:55:19;4.03;;;2.70;;
15871;SDS011;8035;51.962;7.162;2023-06-14T05:57:45;3.57;;;2.37;;
15871;SDS011;8035;51.962;7.162;2023-06-14T06:00:11;4.67;;;3.03;;
15871;SDS011;8035;51.962;7.162;2023-06-14T06:02:41;4.57;;;3.10;;
15871;SDS011;8035;51.962;7.162;2023-06-14T06:05:11;4.73;;;3.17;;
15871;SDS011;8035;51.962;7.162;2023-06-14T06:07:37;4.27;;;2.47;;
15871;SDS011;8035;51.962;7.162;2023-06-14T06:10:05;3.83;;;2.80;;
15871;SDS011;8035;51.962;7.162;2023-06-14T06:12:31;4.87;;;2.70;;
15871;SDS011;8035;51.962;7.162;2023-06-14T06:14:57;2.87;;;2.57;;
15871;SDS011;8035;51.962;7.162;2023-06-14T06:17:24;5.50;;;2.60;;
15871;SDS011;8035;51.962;7.162;2023-06-14T06:19:50;3.20;;;2.70;;
15871;SDS011;8035;51.962;7.162;2023-06-14T06:22:16;4.67;;;2.70;;
15871;SDS011;8035;51.962;7.162;2023-06-14T06:24:42;2.53;;;2.30;;
15871;SDS011;8035;51.962;7.162;2023-06-14T06:27:07;5.57;;;2.97;;
15871;SDS011;8035;51.962;7.162;2023-06-14T06:29:33;4.60;;;2.70;;
15871;SDS011;8035;51.962;7.162;2023-06-14T06:32:00;4.13;;;2.70;;
15871;SDS011;8035;51.962;7.162;2023-06-14T06:34:26;4.13;;;2.23;;
15871;SDS011;8035;51.962;7.162;2023-06-14T06:36:52;2.97;;;2.40;;
15871;SDS011;8035;51.962;7.162;2023-06-14T06:39:17;2.80;;;2.60;;
15871;SDS011;8035;51.962;7.162;2023-06-14T06:41:43;4.90;;;2.63;;
15871;SDS011;8035;51.962;7.162;2023-06-14T06:44:09;5.63;;;2.07;;
15871;SDS011;8035;51.962;7.162;2023-06-14T06:46:38;6.83;;;2.60;;
15871;SDS011;8035;51.962;7.162;2023-06-14T06:49:05;3.90;;;2.35;;
15871;SDS011;8035;51.962;7.162;2023-06-14T06:51:31;5.22;;;2.47;;
15871;SDS011;8035;51.962;7.162;2023-06-14T06:53:57;3.60;;;1.90;;
15871;SDS011;8035;51.962;7.162;2023-06-14T06:56:23;3.80;;;2.00;;
15871;SDS011;8035;51.962;7.162;2023-06-14T06:58:52;2.90;;;2.20;;
15871;SDS011;8035;51.962;7.162;2023-06-14T07:01:18;2.33;;;2.03;;
15871;SDS011;8035;51.962;7.162;2023-06-14T07:03:46;4.67;;;2.13;;
15871;SDS011;8035;51.962;7.162;2023-06-14T07:06:12;5.23;;;2.10;;
15871;SDS011;8035;51.962;7.162;2023-06-14T07:08:38;2.03;;;1.77;;
15871;SDS011;8035;51.962;7.162;2023-06-14T07:11:03;2.63;;;2.00;;
15871;SDS011;8035;51.962;7.162;2023-06-14T07:13:30;2.43;;;2.13;;
15871;SDS011;8035;51.962;7.162;2023-06-14T07:15:59;7.60;;;2.00;;
15871;SDS011;8035;51.962;7.162;2023-06-14T07:18:27;2.40;;;2.20;;
15871;SDS011;8035;51.962;7.162;2023-06-14T07:20:54;2.93;;;1.80;;
15871;SDS011;8035;51.962;7.162;2023-06-14T07:23:21;2.40;;;1.63;;
15871;SDS011;8035;51.962;7.162;2023-06-14T07:25:46;2.77;;;2.00;;
15871;SDS011;8035;51.962;7.162;2023-06-14T07:28:12;4.07;;;1.87;;
15871;SDS011;8035;51.962;7.162;2023-06-14T07:30:37;2.30;;;1.85;;
15871;SDS011;8035;51.962;7.162;2023-06-14T07:33:03;2.13;;;1.90;;
15871;SDS011;8035;51.962;7.162;2023-06-14T07:35:29;3.00;;;1.90;;
15871;SDS011;8035;51.962;7.162;2023-06-14T07:37:54;2.53;;;1.85;;
15871;SDS011;8035;51.962;7.162;2023-06-14T07:40:20;1.50;;;1.40;;
15871;SDS011;8035;51.962;7.162;2023-06-14T07:42:46;2.75;;;1.40;;
15871;SDS011;8035;51.962;7.162;2023-06-14T07:45:13;2.80;;;1.80;;
15871;SDS011;8035;51.962;7.162;2023-06-14T07:47:39;2.60;;;1.63;;
15871;SDS011;8035;51.962;7.162;2023-06-14T07:50:05;2.03;;;1.73;;
15871;SDS011;8035;51.962;7.162;2023-06-14T07:52:30;3.45;;;1.65;;
15871;SDS011;8035;51.962;7.162;2023-06-14T07:54:56;1.73;;;1.40;;
15871;SDS011;8035;51.962;7.162;2023-06-14T07:57:22;3.78;;;1.88;;
15871;SDS011;8035;51.962;7.162;2023-06-14T07:59:47;1.75;;;1.65;;
15871;SDS011;8035;51.962;7.162;2023-06-14T08:02:13;2.95;;;1.75;;
15871;SDS011;8035;51.962;7.162;2023-06-14T08:04:39;1.98;;;1.67;;
15871;SDS011;8035;51.962;7.162;2023-06-14T08:07:05;2.42;;;1.65;;
15871;SDS011;8035;51.962;7.162;2023-06-14T08:09:31;5.30;;;1.98;;
15871;SDS011;8035;51.962;7.162;2023-06-14T08:11:56;2.63;;;1.63;;
15871;SDS011;8035;51.962;7.162;2023-06-14T08:14:22;2.38;;;1.77;;
15871;SDS011;8035;51.962;7.162;2023-06-14T08:16:48;2.33;;;1.80;;
15871;SDS011;8035;51.962;7.162;2023-06-14T08:19:13;5.13;;;1.48;;
15871;SDS011;8035;51.962;7.162;2023-06-14T08:21:41;3.20;;;1.50;;
15871;SDS011;8035;51.962;7.162;2023-06-14T08:24:08;2.63;;;1.75;;
15871;SDS011;8035;51.962;7.162;2023-06-14T08:26:37;2.10;;;1.80;;
15871;SDS011;8035;51.962;7.162;2023-06-14T08:29:03;1.85;;;1.60;;
15871;SDS011;8035;51.962;7.162;2023-06-14T08:31:29;1.67;;;1.55;;
15871;SDS011;8035;51.962;7.162;2023-06-14T08:33:56;1.80;;;1.70;;
15871;SDS011;8035;51.962;7.162;2023-06-14T08:36:22;2.25;;;1.70;;
15871;SDS011;8035;51.962;7.162;2023-06-14T08:38:47;2.05;;;1.80;;
15871;SDS011;8035;51.962;7.162;2023-06-14T08:41:13;2.38;;;1.67;;
15871;SDS011;8035;51.962;7.162;2023-06-14T08:43:47;2.65;;;1.60;;
15871;SDS011;8035;51.962;7.162;2023-06-14T08:46:12;3.97;;;1.85;;
15871;SDS011;8035;51.962;7.162;2023-06-14T08:48:44;2.67;;;2.08;;
15871;SDS011;8035;51.962;7.162;2023-06-14T08:51:15;2.70;;;1.95;;
15871;SDS011;8035;51.962;7.162;2023-06-14T08:53:44;2.20;;;1.80;;
15871;SDS011;8035;51.962;7.162;2023-06-14T08:56:10;1.65;;;1.50;;
15871;SDS011;8035;51.962;7.162;2023-06-14T08:58:39;2.05;;;1.63;;
15871;SDS011;8035;51.962;7.162;2023-06-14T09:01:10;4.50;;;1.70;;
15871;SDS011;8035;51.962;7.162;2023-06-14T09:03:39;2.13;;;1.70;;
15871;SDS011;8035;51.962;7.162;2023-06-14T09:06:06;2.17;;;1.60;;
15871;SDS011;8035;51.962;7.162;2023-06-14T09:08:34;3.03;;;2.00;;
15871;SDS011;8035;51.962;7.162;2023-06-14T09:11:01;1.98;;;1.70;;
15871;SDS011;8035;51.962;7.162;2023-06-14T09:13:27;1.83;;;1.60;;
15871;SDS011;8035;51.962;7.162;2023-06-14T09:15:52;2.00;;;1.75;;
15871;SDS011;8035;51.962;7.162;2023-06-14T09:18:18;2.22;;;1.92;;
15871;SDS011;8035;51.962;7.162;2023-06-14T09:20:47;2.33;;;1.77;;
15871;SDS011;8035;51.962;7.162;2023-06-14T09:23:13;2.33;;;1.60;;
15871;SDS011;8035;51.962;7.162;2023-06-14T09:25:45;2.50;;;1.63;;
15871;SDS011;8035;51.962;7.162;2023-06-14T09:28:11;3.28;;;1.63;;
15871;SDS011;8035;51.962;7.162;2023-06-14T09:30:37;3.13;;;1.90;;
15871;SDS011;8035;51.962;7.162;2023-06-14T09:33:03;2.13;;;1.92;;
15871;SDS011;8035;51.962;7.162;2023-06-14T09:35:30;2.33;;;1.77;;
15871;SDS011;8035;51.962;7.162;2023-06-14T09:37:57;2.85;;;1.75;;
15871;SDS011;8035;51.962;7.162;2023-06-14T09:40:23;2.05;;;1.80;;
15871;SDS011;8035;51.962;7.162;2023-06-14T09:42:49;1.77;;;1.67;;
15871;SDS011;8035;51.962;7.162;2023-06-14T09:45:15;4.93;;;1.58;;
15871;SDS011;8035;51.962;7.162;2023-06-14T09:47:46;2.03;;;1.67;;
15871;SDS011;8035;51.962;7.162;2023-06-14T09:50:14;1.63;;;1.45;;
15871;SDS011;8035;51.962;7.162;2023-06-14T09:52:40;3.50;;;1.70;;
15871;SDS011;8035;51.962;7.162;2023-06-14T09:55:12;1.75;;;1.60;;
15871;SDS011;8035;51.962;7.162;2023-06-14T09:57:41;5.55;;;1.67;;
15871;SDS011;8035;51.962;7.162;2023-06-14T10:00:09;1.77;;;1.63;;
15871;SDS011;8035;51.962;7.162;2023-06-14T10:02:36;1.90;;;1.50;;
15871;SDS011;8035;51.962;7.162;2023-06-14T10:08:14;3.00;;;1.67;;
15871;SDS011;8035;51.962;7.162;2023-06-14T10:10:28;2.70;;;1.50;;
15871;SDS011;8035;51.962;7.162;2023-06-14T10:12:54;2.35;;;1.70;;
15871;SDS011;8035;51.962;7.162;2023-06-14T10:15:31;2.58;;;1.88;;
15871;SDS011;8035;51.962;7.162;2023-06-14T10:18:11;2.13;;;1.60;;
15871;SDS011;8035;51.962;7.162;2023-06-14T10:23:57;2.28;;;1.60;;
15871;SDS011;8035;51.962;7.162;2023-06-14T10:26:28;1.70;;;1.58;;
15871;SDS011;8035;51.962;7.162;2023-06-14T10:29:09;1.50;;;1.40;;
15871;SDS011;8035;51.962;7.162;2023-06-14T10:31:41;3.45;;;1.48;;
15871;SDS011;8035;51.962;7.162;2023-06-14T10:34:09;2.65;;;1.70;;
15871;SDS011;8035;51.962;7.162;2023-06-14T10:36:37;1.73;;;1.30;;
15871;SDS011;8035;51.962;7.162;2023-06-14T10:39:07;1.67;;;1.35;;
15871;SDS011;8035;51.962;7.162;2023-06-14T10:41:36;2.05;;;1.50;;
15871;SDS011;8035;51.962;7.162;2023-06-14T10:46:38;2.58;;;1.50;;
15871;SDS011;8035;51.962;7.162;2023-06-14T10:49:05;2.30;;;1.58;;
15871;SDS011;8035;51.962;7.162;2023-06-14T10:51:38;1.63;;;1.50;;
15871;SDS011;8035;51.962;7.162;2023-06-14T10:54:14;2.13;;;1.30;;
15871;SDS011;8035;51.962;7.162;2023-06-14T10:56:53;1.50;;;1.40;;
15871;SDS011;8035;51.962;7.162;2023-06-14T10:59:20;1.70;;;1.60;;
15871;SDS011;8035;51.962;7.162;2023-06-14T11:04:49;1.73;;;1.40;;
15871;SDS011;8035;51.962;7.162;2023-06-14T11:12:51;2.70;;;1.60;;
15871;SDS011;8035;51.962;7.162;2023-06-14T11:15:20;3.50;;;1.73;;
15871;SDS011;8035;51.962;7.162;2023-06-14T11:17:51;1.33;;;1.23;;
15871;SDS011;8035;51.962;7.162;2023-06-14T11:20:23;2.00;;;1.23;;
15871;SDS011;8035;51.962;7.162;2023-06-14T11:22:51;1.27;;;1.17;;
15871;SDS011;8035;51.962;7.162;2023-06-14T11:25:17;2.22;;;1.70;;
15871;SDS011;8035;51.962;7.162;2023-06-14T11:27:43;2.67;;;1.50;;
15871;SDS011;8035;51.962;7.162;2023-06-14T11:30:10;1.42;;;1.33;;
15871;SDS011;8035;51.962;7.162;2023-06-14T11:32:37;2.20;;;1.60;;
15871;SDS011;8035;51.962;7.162;2023-06-14T11:35:03;2.67;;;1.55;;
15871;SDS011;8035;51.962;7.162;2023-06-14T11:37:32;1.98;;;1.35;;
15871;SDS011;8035;51.962;7.162;2023-06-14T11:39:59;1.83;;;1.42;;
15871;SDS011;8035;51.962;7.162;2023-06-14T11:42:28;2.05;;;1.35;;
15871;SDS011;8035;51.962;7.162;2023-06-14T11:44:55;3.30;;;1.52;;
15871;SDS011;8035;51.962;7.162;2023-06-14T11:47:21;1.50;;;1.40;;
15871;SDS011;8035;51.962;7.162;2023-06-14T11:49:47;2.28;;;1.55;;
15871;SDS011;8035;51.962;7.162;2023-06-14T11:52:13;7.68;;;1.80;;
15871;SDS011;8035;51.962;7.162;2023-06-14T11:54:39;2.03;;;1.55;;
15871;SDS011;8035;51.962;7.162;2023-06-14T11:57:09;5.20;;;1.33;;
15871;SDS011;8035;51.962;7.162;2023-06-14T11:59:39;2.00;;;1.42;;
15871;SDS011;8035;51.962;7.162;2023-06-14T12:02:05;2.30;;;1.67;;
15871;SDS011;8035;51.962;7.162;2023-06-14T12:04:32;1.75;;;1.50;;
15871;SDS011;8035;51.962;7.162;2023-06-14T12:07:08;2.15;;;1.45;;
15871;SDS011;8035;51.962;7.162;2023-06-14T12:12:24;4.50;;;1.85;;
15871;SDS011;8035;51.962;7.162;2023-06-14T12:14:51;2.47;;;1.63;;
15871;SDS011;8035;51.962;7.162;2023-06-14T12:17:18;4.95;;;1.80;;
15871;SDS011;8035;51.962;7.162;2023-06-14T12:19:44;2.33;;;1.70;;
15871;SDS011;8035;51.962;7.162;2023-06-14T12:22:11;1.80;;;1.60;;
15871;SDS011;8035;51.962;7.162;2023-06-14T12:24:38;2.50;;;1.45;;
15871;SDS011;8035;51.962;7.162;2023-06-14T12:27:04;2.20;;;1.88;;
15871;SDS011;8035;51.962;7.162;2023-06-14T12:29:30;1.85;;;1.70;;
15871;SDS011;8035;51.962;7.162;2023-06-14T12:31:57;2.22;;;1.67;;
15871;SDS011;8035;51.962;7.162;2023-06-14T12:34:23;3.85;;;1.63;;
15871;SDS011;8035;51.962;7.162;2023-06-14T12:36:55;1.58;;;1.48;;
15871;SDS011;8035;51.962;7.162;2023-06-14T12:39:21;3.05;;;1.70;;
15871;SDS011;8035;51.962;7.162;2023-06-14T12:41:47;2.40;;;1.63;;
15871;SDS011;8035;51.962;7.162;2023-06-14T12:44:13;1.92;;;1.52;;
15871;SDS011;8035;51.962;7.162;2023-06-14T12:46:41;1.63;;;1.42;;
15871;SDS011;8035;51.962;7.162;2023-06-14T12:49:08;1.60;;;1.50;;
15871;SDS011;8035;51.962;7.162;2023-06-14T12:51:35;2.22;;;1.77;;
15871;SDS011;8035;51.962;7.162;2023-06-14T12:54:00;2.00;;;1.80;;
15871;SDS011;8035;51.962;7.162;2023-06-14T12:56:26;1.80;;;1.70;;
15871;SDS011;8035;51.962;7.162;2023-06-14T12:58:52;1.85;;;1.65;;
15871;SDS011;8035;51.962;7.162;2023-06-14T13:01:18;3.13;;;1.80;;
15871;SDS011;8035;51.962;7.162;2023-06-14T13:03:44;2.22;;;1.80;;
15871;SDS011;8035;51.962;7.162;2023-06-14T13:06:11;1.90;;;1.80;;
15871;SDS011;8035;51.962;7.162;2023-06-14T13:08:37;2.13;;;1.80;;
15871;SDS011;8035;51.962;7.162;2023-06-14T13:11:02;1.77;;;1.65;;
15871;SDS011;8035;51.962;7.162;2023-06-14T13:13:28;2.75;;;1.70;;
15871;SDS011;8035;51.962;7.162;2023-06-14T13:15:53;2.47;;;1.98;;
15871;SDS011;8035;51.962;7.162;2023-06-14T13:18:19;2.83;;;1.85;;
15871;SDS011;8035;51.962;7.162;2023-06-14T13:20:45;2.45;;;2.00;;
15871;SDS011;8035;51.962;7.162;2023-06-14T13:23:11;2.15;;;1.50;;
15871;SDS011;8035;51.962;7.162;2023-06-14T13:25:37;1.55;;;1.45;;
15871;SDS011;8035;51.962;7.162;2023-06-14T13:28:03;1.77;;;1.67;;
15871;SDS011;8035;51.962;7.162;2023-06-14T13:30:30;4.00;;;2.05;;
15871;SDS011;8035;51.962;7.162;2023-06-14T13:32:57;1.92;;;1.80;;
15871;SDS011;8035;51.962;7.162;2023-06-14T13:35:23;2.35;;;2.10;;
15871;SDS011;8035;51.962;7.162;2023-06-14T13:37:49;2.65;;;1.95;;
15871;SDS011;8035;51.962;7.162;2023-06-14T13:40:15;2.35;;;1.65;;
15871;SDS011;8035;51.962;7.162;2023-06-14T13:42:40;2.08;;;1.88;;
15871;SDS011;8035;51.962;7.162;2023-06-14T13:45:07;3.03;;;1.80;;
15871;SDS011;8035;51.962;7.162;2023-06-14T13:47:33;2.08;;;1.88;;
15871;SDS011;8035;51.962;7.162;2023-06-14T13:49:59;2.30;;;1.65;;
15871;SDS011;8035;51.962;7.162;2023-06-14T13:52:25;2.00;;;1.90;;
15871;SDS011;8035;51.962;7.162;2023-06-14T13:54:51;2.65;;;1.90;;
15871;SDS011;8035;51.962;7.162;2023-06-14T13:57:17;2.28;;;2.08;;
15871;SDS011;8035;51.962;7.162;2023-06-14T13:59:43;2.63;;;1.92;;
15871;SDS011;8035;51.962;7.162;2023-06-14T14:02:09;2.10;;;1.90;;
15871;SDS011;8035;51.962;7.162;2023-06-14T14:04:36;2.10;;;1.88;;
15871;SDS011;8035;51.962;7.162;2023-06-14T14:07:03;1.65;;;1.55;;
15871;SDS011;8035;51.962;7.162;2023-06-14T14:09:29;1.80;;;1.70;;
15871;SDS011;8035;51.962;7.162;2023-06-14T14:11:55;3.08;;;1.77;;
15871;SDS011;8035;51.962;7.162;2023-06-14T14:14:21;3.13;;;2.03;;
15871;SDS011;8035;51.962;7.162;2023-06-14T14:16:48;1.80;;;1.70;;
15871;SDS011;8035;51.962;7.162;2023-06-14T14:19:14;6.18;;;2.10;;
15871;SDS011;8035;51.962;7.162;2023-06-14T14:21:39;2.20;;;2.00;;
15871;SDS011;8035;51.962;7.162;2023-06-14T14:24:05;2.40;;;2.00;;
15871;SDS011;8035;51.962;7.162;2023-06-14T14:26:31;2.00;;;1.80;;
15871;SDS011;8035;51.962;7.162;2023-06-14T14:28:56;1.80;;;1.70;;
15871;SDS011;8035;51.962;7.162;2023-06-14T14:31:22;3.13;;;2.15;;
15871;SDS011;8035;51.962;7.162;2023-06-14T14:33:47;2.58;;;1.88;;
15871;SDS011;8035;51.962;7.162;2023-06-14T14:36:13;1.85;;;1.70;;
15871;SDS011;8035;51.962;7.162;2023-06-14T14:38:39;2.10;;;1.90;;
15871;SDS011;8035;51.962;7.162;2023-06-14T14:41:04;4.95;;;2.08;;
15871;SDS011;8035;51.962;7.162;2023-06-14T14:43:30;3.22;;;1.80;;
15871;SDS011;8035;51.962;7.162;2023-06-14T14:45:56;3.38;;;2.00;;
15871;SDS011;8035;51.962;7.162;2023-06-14T14:48:22;3.25;;;2.20;;
15871;SDS011;8035;51.962;7.162;2023-06-14T14:50:48;2.40;;;1.92;;
15871;SDS011;8035;51.962;7.162;2023-06-14T14:53:13;2.90;;;2.20;;
15871;SDS011;8035;51.962;7.162;2023-06-14T14:55:41;1.80;;;1.70;;
15871;SDS011;8035;51.962;7.162;2023-06-14T14:58:07;3.15;;;2.00;;
15871;SDS011;8035;51.962;7.162;2023-06-14T15:00:33;2.47;;;2.03;;
15871;SDS011;8035;51.962;7.162;2023-06-14T15:02:59;1.88;;;1.77;;
15871;SDS011;8035;51.962;7.162;2023-06-14T15:05:25;4.20;;;1.98;;
15871;SDS011;8035;51.962;7.162;2023-06-14T15:07:50;3.25;;;2.00;;
15871;SDS011;8035;51.962;7.162;2023-06-14T15:10:16;2.45;;;1.92;;
15871;SDS011;8035;51.962;7.162;2023-06-14T15:12:42;2.20;;;1.90;;
15871;SDS011;8035;51.962;7.162;2023-06-14T15:15:07;6.28;;;1.98;;
15871;SDS011;8035;51.962;7.162;2023-06-14T15:17:34;1.75;;;1.65;;
15871;SDS011;8035;51.962;7.162;2023-06-14T15:20:00;3.72;;;2.00;;
15871;SDS011;8035;51.962;7.162;2023-06-14T15:22:25;2.22;;;1.80;;
15871;SDS011;8035;51.962;7.162;2023-06-14T15:24:51;3.22;;;1.92;;